createdAt,value
2017-09-12T00:00:36.244Z,25.62
2017-09-12T00:03:02.474Z,25.71
2017-09-12T00:05:28.710Z,25.61
2017-09-12T00:07:54.947Z,25.66
2017-09-12T00:10:21.168Z,25.52
2017-09-12T00:12:47.396Z,25.57
2017-09-12T00:15:13.633Z,25.55
2017-09-12T00:17:39.859Z,25.61
2017-09-12T00:20:06.093Z,25.63
2017-09-12T00:22:32.326Z,25.58
2017-09-12T00:24:58.544Z,25.63
2017-09-12T00:27:24.779Z,25.52
2017-09-12T00:29:51.010Z,25.41
2017-09-12T00:32:17.229Z,25.33
2017-09-12T00:34:43.457Z,25.28
2017-09-12T00:37:09.696Z,25.27
2017-09-12T00:39:35.929Z,25.29
2017-09-12T00:42:02.142Z,25.20
2017-09-12T00:44:28.377Z,25.08
2017-09-12T00:46:54.613Z,25.15
2017-09-12T00:49:20.856Z,25.07
2017-09-12T00:51:47.092Z,25.01
2017-09-12T00:54:13.317Z,25.01
2017-09-12T00:56:39.536Z,25.04
2017-09-12T00:59:05.769Z,25.11
2017-09-12T01:01:31.981Z,25.03
2017-09-12T01:03:58.231Z,24.96
2017-09-12T01:06:24.482Z,24.93
2017-09-12T01:08:50.683Z,24.90
2017-09-12T01:11:16.910Z,24.85
2017-09-12T01:13:43.147Z,24.86
2017-09-12T01:16:09.377Z,24.92
2017-09-12T01:18:35.602Z,24.96
2017-09-12T01:21:01.831Z,24.97
2017-09-12T01:23:28.063Z,24.77
2017-09-12T01:25:54.286Z,24.66
2017-09-12T01:28:20.520Z,24.52
2017-09-12T01:30:46.758Z,24.49
2017-09-12T01:33:12.974Z,24.47
2017-09-12T01:35:39.211Z,24.51
2017-09-12T01:38:05.446Z,24.45
2017-09-12T01:40:31.674Z,24.40
2017-09-12T01:42:57.895Z,24.43
2017-09-12T01:45:24.137Z,24.51
2017-09-12T01:47:50.365Z,24.65
2017-09-12T01:50:16.608Z,24.72
2017-09-12T01:52:42.815Z,24.76
2017-09-12T01:55:09.041Z,24.64
2017-09-12T01:57:35.275Z,24.61
2017-09-12T02:00:01.511Z,24.64
2017-09-12T02:02:27.726Z,24.60
2017-09-12T02:04:53.956Z,24.36
2017-09-12T02:07:20.198Z,24.37
2017-09-12T02:09:46.428Z,24.38
2017-09-12T02:12:12.650Z,24.36
2017-09-12T02:14:38.878Z,24.42
2017-09-12T02:17:05.104Z,24.45
2017-09-12T02:19:31.340Z,24.46
2017-09-12T02:21:57.570Z,24.47
2017-09-12T02:24:23.798Z,24.39
2017-09-12T02:26:50.041Z,24.45
2017-09-12T02:29:16.251Z,24.43
2017-09-12T02:31:42.489Z,24.34
2017-09-12T02:34:08.716Z,24.25
2017-09-12T02:36:34.954Z,24.37
2017-09-12T02:39:01.179Z,24.45
2017-09-12T02:41:27.418Z,24.41
2017-09-12T02:43:53.630Z,24.38
2017-09-12T02:46:19.865Z,24.34
2017-09-12T02:48:46.101Z,24.25
2017-09-12T02:51:12.336Z,24.31
2017-09-12T02:53:38.552Z,24.13
2017-09-12T02:56:04.790Z,24.23
2017-09-12T02:58:31.023Z,24.27
2017-09-12T03:00:57.243Z,24.29
2017-09-12T03:03:23.461Z,24.38
2017-09-12T03:05:49.699Z,24.37
2017-09-12T03:08:15.922Z,24.40
2017-09-12T03:10:42.168Z,24.36
2017-09-12T03:13:08.384Z,24.34
2017-09-12T03:15:34.624Z,24.21
2017-09-12T03:18:00.844Z,24.14
2017-09-12T03:20:27.086Z,24.15
2017-09-12T03:22:53.318Z,24.19
2017-09-12T03:25:19.538Z,24.16
2017-09-12T03:27:45.783Z,24.14
2017-09-12T03:30:12.001Z,24.21
2017-09-12T03:32:38.235Z,24.17
2017-09-12T03:35:04.461Z,24.10
2017-09-12T03:37:30.692Z,24.11
2017-09-12T03:39:56.915Z,24.12
2017-09-12T03:42:23.152Z,24.07
2017-09-12T03:44:49.386Z,23.96
2017-09-12T03:47:15.610Z,23.99
2017-09-12T03:49:41.845Z,23.95
2017-09-12T03:52:08.080Z,23.96
2017-09-12T03:54:34.309Z,23.92
2017-09-12T03:57:00.525Z,23.82
2017-09-12T03:59:26.759Z,23.72
2017-09-12T04:01:53.002Z,23.77
2017-09-12T04:04:19.221Z,23.85
2017-09-12T04:06:45.457Z,23.81
2017-09-12T04:09:11.682Z,23.80
2017-09-12T04:11:37.914Z,23.78
2017-09-12T04:14:04.130Z,23.78
2017-09-12T04:16:30.367Z,23.74
2017-09-12T04:18:56.608Z,23.80
2017-09-12T04:21:22.828Z,23.76
2017-09-12T04:23:49.059Z,23.75
2017-09-12T04:26:15.302Z,23.77
2017-09-12T04:28:41.521Z,23.79
2017-09-12T04:31:07.749Z,23.81
2017-09-12T04:33:33.973Z,23.79
2017-09-12T04:36:00.206Z,24.03
2017-09-12T04:38:26.439Z,24.41
2017-09-12T04:40:52.659Z,24.69
2017-09-12T04:43:18.895Z,24.75
2017-09-12T04:45:45.130Z,24.99
2017-09-12T04:48:11.345Z,25.05
2017-09-12T04:50:37.575Z,25.14
2017-09-12T04:53:03.807Z,24.96
2017-09-12T04:55:30.040Z,24.84
2017-09-12T04:57:56.266Z,25.25
2017-09-12T05:00:22.500Z,25.06
2017-09-12T05:02:48.729Z,25.23
2017-09-12T05:05:14.958Z,25.32
2017-09-12T05:07:41.193Z,25.49
2017-09-12T05:10:07.419Z,25.85
2017-09-12T05:12:33.641Z,25.95
2017-09-12T05:14:59.871Z,26.47
2017-09-12T05:17:26.095Z,26.28
2017-09-12T05:19:52.346Z,26.64
2017-09-12T05:22:18.573Z,26.80
2017-09-12T05:24:44.814Z,26.70
2017-09-12T05:27:11.017Z,26.46
2017-09-12T05:29:37.257Z,26.62
2017-09-12T05:32:03.487Z,26.80
2017-09-12T05:34:29.714Z,26.58
2017-09-12T05:36:55.951Z,26.41
2017-09-12T05:39:22.183Z,26.97
2017-09-12T05:41:48.416Z,27.24
2017-09-12T05:44:14.641Z,27.41
2017-09-12T05:46:40.860Z,27.68
2017-09-12T05:49:07.093Z,27.93
2017-09-12T05:51:33.315Z,28.39
2017-09-12T05:53:59.566Z,29.61
2017-09-12T05:56:25.776Z,29.23
2017-09-12T05:58:52.005Z,29.13
2017-09-12T06:01:18.289Z,29.04
2017-09-12T06:03:44.461Z,28.46
2017-09-12T06:06:10.697Z,28.68
2017-09-12T06:08:37.057Z,28.75
2017-09-12T06:11:10.266Z,28.97
2017-09-12T06:13:36.773Z,29.30
2017-09-12T06:16:02.991Z,29.20
2017-09-12T06:18:29.220Z,30.40
2017-09-12T06:20:55.462Z,30.59
2017-09-12T06:23:21.715Z,29.95
2017-09-12T06:25:47.914Z,30.46
2017-09-12T06:28:14.146Z,29.97
2017-09-12T06:30:40.396Z,29.82
2017-09-12T06:33:06.617Z,29.71
2017-09-12T06:35:32.825Z,30.25
2017-09-12T06:37:59.072Z,30.14
2017-09-12T06:40:31.753Z,30.23
2017-09-12T06:42:57.964Z,30.56
2017-09-12T06:45:24.203Z,29.74
2017-09-12T06:47:50.445Z,29.35
2017-09-12T06:50:16.660Z,29.78
2017-09-12T06:52:42.893Z,30.13
2017-09-12T06:55:09.131Z,29.81
2017-09-12T06:57:35.343Z,28.94
2017-09-12T07:00:01.600Z,28.85
2017-09-12T07:02:27.804Z,29.48
2017-09-12T07:04:54.049Z,30.79
2017-09-12T07:07:20.210Z,31.03
2017-09-12T07:09:46.403Z,31.14
2017-09-12T07:12:12.639Z,31.27
2017-09-12T07:14:38.777Z,32.13
2017-09-12T07:17:04.986Z,32.29
2017-09-12T07:19:31.215Z,32.38
2017-09-12T07:21:57.370Z,31.93
2017-09-12T07:24:23.530Z,32.07
2017-09-12T07:26:49.676Z,32.80
2017-09-12T07:29:15.829Z,33.19
2017-09-12T07:31:41.973Z,33.50
2017-09-12T07:34:08.124Z,33.76
2017-09-12T07:36:34.268Z,33.50
2017-09-12T07:39:00.420Z,32.96
2017-09-12T07:41:26.567Z,33.25
2017-09-12T07:43:53.415Z,33.80
2017-09-12T07:46:19.548Z,34.03
2017-09-12T07:48:45.706Z,34.58
2017-09-12T07:51:11.864Z,35.01
2017-09-12T07:53:38.008Z,35.75
2017-09-12T07:56:04.164Z,36.03
2017-09-12T07:58:30.317Z,34.52
2017-09-12T08:00:56.468Z,34.19
2017-09-12T08:03:22.610Z,33.26
2017-09-12T08:05:48.753Z,32.64
2017-09-12T08:08:14.911Z,31.31
2017-09-12T08:10:41.049Z,31.79
2017-09-12T08:13:07.197Z,31.83
2017-09-12T08:15:33.349Z,31.04
2017-09-12T08:17:59.521Z,31.25
2017-09-12T08:20:25.684Z,31.87
2017-09-12T08:22:51.830Z,32.80
2017-09-12T08:25:17.981Z,32.47
2017-09-12T08:27:44.134Z,32.15
2017-09-12T08:30:10.292Z,32.00
2017-09-12T08:32:36.431Z,31.59
2017-09-12T08:35:02.583Z,31.23
2017-09-12T08:37:28.753Z,31.17
2017-09-12T08:39:54.916Z,30.59
2017-09-12T08:42:21.078Z,30.41
2017-09-12T08:44:47.234Z,30.41
2017-09-12T08:47:13.391Z,30.04
2017-09-12T08:49:39.530Z,29.88
2017-09-12T08:52:05.674Z,29.91
2017-09-12T08:54:31.832Z,30.28
2017-09-12T08:56:57.967Z,31.62
2017-09-12T08:59:24.122Z,33.23
2017-09-12T09:01:50.280Z,34.31
2017-09-12T09:04:16.539Z,33.94
2017-09-12T09:06:42.772Z,34.38
2017-09-12T09:09:09.000Z,33.89
2017-09-12T09:11:35.240Z,33.27
2017-09-12T09:14:01.509Z,34.39
2017-09-12T09:16:27.700Z,34.51
2017-09-12T09:18:53.936Z,34.84
2017-09-12T09:21:20.181Z,35.69
2017-09-12T09:23:46.370Z,36.64
2017-09-12T09:26:12.623Z,36.68
2017-09-12T09:28:38.803Z,36.41
2017-09-12T09:31:05.058Z,35.31
2017-09-12T09:33:31.301Z,35.04
2017-09-12T09:35:57.528Z,34.54
2017-09-12T09:38:23.678Z,32.90
2017-09-12T09:40:49.892Z,33.34
2017-09-12T09:43:16.094Z,34.33
2017-09-12T09:45:42.354Z,34.14
2017-09-12T09:48:08.590Z,33.38
2017-09-12T09:50:34.755Z,33.15
2017-09-12T09:53:00.933Z,32.37
2017-09-12T09:55:27.172Z,32.32
2017-09-12T09:57:53.391Z,31.96
2017-09-12T10:00:19.612Z,32.51
2017-09-12T10:02:45.849Z,32.50
2017-09-12T10:05:12.082Z,32.13
2017-09-12T10:07:38.300Z,31.84
2017-09-12T10:10:04.548Z,31.95
2017-09-12T10:12:30.759Z,31.81
2017-09-12T10:14:56.991Z,31.97
2017-09-12T10:17:23.214Z,32.57
2017-09-12T10:19:49.469Z,33.67
2017-09-12T10:22:15.678Z,33.82
2017-09-12T10:24:41.922Z,33.85
2017-09-12T10:27:08.139Z,34.32
2017-09-12T10:29:34.367Z,33.87
2017-09-12T10:32:00.603Z,33.95
2017-09-12T10:34:26.844Z,34.71
2017-09-12T10:36:53.068Z,34.22
2017-09-12T10:39:19.300Z,32.59
2017-09-12T10:41:46.537Z,31.65
2017-09-12T10:44:12.782Z,31.24
2017-09-12T10:46:39.006Z,31.02
2017-09-12T10:49:05.255Z,31.06
2017-09-12T10:51:31.479Z,30.96
2017-09-12T10:53:57.713Z,30.97
2017-09-12T10:56:23.911Z,31.01
2017-09-12T10:58:50.165Z,31.04
2017-09-12T11:01:16.389Z,31.23
2017-09-12T11:03:42.617Z,31.71
2017-09-12T11:06:08.854Z,32.19
2017-09-12T11:08:35.098Z,32.99
2017-09-12T11:11:01.296Z,33.30
2017-09-12T11:13:27.532Z,34.16
2017-09-12T11:15:53.756Z,34.18
2017-09-12T11:18:19.978Z,33.72
2017-09-12T11:20:46.211Z,33.05
2017-09-12T11:23:12.478Z,32.33
2017-09-12T11:25:38.690Z,31.81
2017-09-12T11:28:04.910Z,31.54
2017-09-12T11:30:31.135Z,31.46
2017-09-12T11:32:57.374Z,31.25
2017-09-12T11:35:23.605Z,31.33
2017-09-12T11:37:49.825Z,31.88
2017-09-12T11:40:16.054Z,31.81
2017-09-12T11:42:42.284Z,31.90
2017-09-12T11:45:08.510Z,32.48
2017-09-12T11:47:34.748Z,32.22
2017-09-12T11:50:00.975Z,31.68
2017-09-12T11:52:27.194Z,31.31
2017-09-12T11:54:53.430Z,30.87
2017-09-12T11:57:19.660Z,30.84
2017-09-12T11:59:45.883Z,30.79
2017-09-12T12:02:12.183Z,30.63
2017-09-12T12:04:38.329Z,30.77
2017-09-12T12:07:04.599Z,30.93
2017-09-12T12:09:30.831Z,31.21
2017-09-12T12:11:57.011Z,31.57
2017-09-12T12:14:23.278Z,31.45
2017-09-12T12:16:49.510Z,31.83
2017-09-12T12:19:15.737Z,32.10
2017-09-12T12:21:41.923Z,32.60
2017-09-12T12:24:08.098Z,34.41
2017-09-12T12:26:34.315Z,35.00
2017-09-12T12:29:00.554Z,36.06
2017-09-12T12:31:26.797Z,36.41
2017-09-12T12:33:53.030Z,36.22
2017-09-12T12:36:19.243Z,35.67
2017-09-12T12:38:45.471Z,35.44
2017-09-12T12:41:11.699Z,36.14
2017-09-12T12:43:37.935Z,36.27
2017-09-12T12:46:04.167Z,37.07
2017-09-12T12:48:30.377Z,36.71
2017-09-12T12:50:56.619Z,36.46
2017-09-12T12:53:22.845Z,36.28
2017-09-12T12:55:49.081Z,36.30
2017-09-12T12:58:15.298Z,36.47
2017-09-12T13:00:41.540Z,35.58
2017-09-12T13:03:07.772Z,34.29
2017-09-12T13:05:33.992Z,33.99
2017-09-12T13:08:00.147Z,34.66
2017-09-12T13:10:26.355Z,35.74
2017-09-12T13:12:52.513Z,36.25
2017-09-12T13:15:18.714Z,36.14
2017-09-12T13:17:44.937Z,36.56
2017-09-12T13:20:11.184Z,37.05
2017-09-12T13:22:37.405Z,37.10
2017-09-12T13:25:03.633Z,38.28
2017-09-12T13:27:29.861Z,38.51
2017-09-12T13:29:56.090Z,38.64
2017-09-12T13:32:22.330Z,35.93
2017-09-12T13:34:48.557Z,34.30
2017-09-12T13:37:14.786Z,33.84
2017-09-12T13:39:41.010Z,33.64
2017-09-12T13:42:07.248Z,34.47
2017-09-12T13:44:33.473Z,35.05
2017-09-12T13:46:59.687Z,35.31
2017-09-12T13:49:25.911Z,36.86
2017-09-12T13:51:52.155Z,36.40
2017-09-12T13:54:18.387Z,36.63
2017-09-12T13:56:44.615Z,36.66
2017-09-12T13:59:10.871Z,36.53
2017-09-12T14:01:37.066Z,36.62
2017-09-12T14:04:03.313Z,36.51
2017-09-12T14:06:29.546Z,35.93
2017-09-12T14:08:55.748Z,34.33
2017-09-12T14:11:21.987Z,33.83
2017-09-12T14:13:48.204Z,33.87
2017-09-12T14:16:14.447Z,35.14
2017-09-12T14:18:40.673Z,36.19
2017-09-12T14:21:06.832Z,36.73
2017-09-12T14:23:33.037Z,36.09
2017-09-12T14:25:59.276Z,34.71
2017-09-12T14:28:25.513Z,33.43
2017-09-12T14:30:51.739Z,33.15
2017-09-12T14:33:17.966Z,32.91
2017-09-12T14:35:44.173Z,33.32
2017-09-12T14:38:10.386Z,34.81
2017-09-12T14:40:36.650Z,35.38
2017-09-12T14:43:02.886Z,34.67
2017-09-12T14:45:29.119Z,33.75
2017-09-12T14:47:55.323Z,33.30
2017-09-12T14:50:21.576Z,32.63
2017-09-12T14:52:47.789Z,32.04
2017-09-12T14:55:14.027Z,31.79
2017-09-12T14:57:40.255Z,31.42
2017-09-12T15:00:06.483Z,31.14
2017-09-12T15:02:32.735Z,31.09
2017-09-12T15:04:58.933Z,30.93
2017-09-12T15:07:25.183Z,30.90
2017-09-12T15:09:51.405Z,31.46
2017-09-12T15:12:17.641Z,32.82
2017-09-12T15:14:43.864Z,33.68
2017-09-12T15:17:10.106Z,34.57
2017-09-12T15:19:36.339Z,34.85
2017-09-12T15:22:02.559Z,34.05
2017-09-12T15:24:28.786Z,33.84
2017-09-12T15:26:55.017Z,33.60
2017-09-12T15:29:21.252Z,33.42
2017-09-12T15:31:47.476Z,33.10
2017-09-12T15:34:13.710Z,32.35
2017-09-12T15:36:39.989Z,31.80
2017-09-12T15:39:06.175Z,31.70
2017-09-12T15:41:32.436Z,31.37
2017-09-12T15:43:58.621Z,31.01
2017-09-12T15:46:24.853Z,30.93
2017-09-12T15:48:51.083Z,30.54
2017-09-12T15:51:17.354Z,30.24
2017-09-12T15:53:43.563Z,29.97
2017-09-12T15:56:09.744Z,29.66
2017-09-12T15:58:36.004Z,29.52
2017-09-12T16:01:02.250Z,29.41
2017-09-12T16:03:28.445Z,29.37
2017-09-12T16:05:54.688Z,29.24
2017-09-12T16:08:20.911Z,29.12
2017-09-12T16:10:47.151Z,29.03
2017-09-12T16:13:13.394Z,28.92
2017-09-12T16:15:39.617Z,28.84
2017-09-12T16:18:05.832Z,28.82
2017-09-12T16:20:32.052Z,28.64
2017-09-12T16:22:58.297Z,28.55
2017-09-12T16:25:24.512Z,28.37
2017-09-12T16:27:50.779Z,28.26
2017-09-12T16:30:16.994Z,28.04
2017-09-12T16:32:43.206Z,27.96
2017-09-12T16:35:09.433Z,27.82
2017-09-12T16:37:35.681Z,27.72
2017-09-12T16:40:01.848Z,27.51
2017-09-12T16:42:28.038Z,27.42
2017-09-12T16:44:54.255Z,27.35
2017-09-12T16:47:20.477Z,27.28
2017-09-12T16:49:46.725Z,27.13
2017-09-12T16:52:12.941Z,27.02
2017-09-12T16:54:39.173Z,27.01
2017-09-12T16:57:05.407Z,26.94
2017-09-12T16:59:31.645Z,26.86
2017-09-12T17:01:57.869Z,26.82
2017-09-12T17:04:24.107Z,26.81
2017-09-12T17:06:50.331Z,26.64
2017-09-12T17:09:16.554Z,26.57
2017-09-12T17:11:42.790Z,26.58
2017-09-12T17:14:09.012Z,26.68
2017-09-12T17:16:35.278Z,26.60
2017-09-12T17:19:01.503Z,26.44
2017-09-12T17:21:27.694Z,26.45
2017-09-12T17:23:54.049Z,26.36
2017-09-12T17:26:20.391Z,26.29
2017-09-12T17:28:46.617Z,26.27
2017-09-12T17:31:12.841Z,26.24
2017-09-12T17:33:39.053Z,26.15
2017-09-12T17:36:05.290Z,26.18
2017-09-12T17:38:31.506Z,26.12
2017-09-12T17:40:57.739Z,26.11
2017-09-12T17:43:23.976Z,26.08
2017-09-12T17:45:50.225Z,25.93
2017-09-12T17:48:16.429Z,25.85
2017-09-12T17:50:42.698Z,25.78
2017-09-12T17:53:08.909Z,25.76
2017-09-12T17:55:35.139Z,25.69
2017-09-12T17:58:01.354Z,25.57
2017-09-12T18:00:28.629Z,25.55
2017-09-12T18:02:54.836Z,25.44
2017-09-12T18:05:21.120Z,25.26
2017-09-12T18:07:47.295Z,25.11
2017-09-12T18:10:13.542Z,25.04
2017-09-12T18:12:39.749Z,24.93
2017-09-12T18:15:06.011Z,24.73
2017-09-12T18:17:32.229Z,24.62
2017-09-12T18:19:58.461Z,24.47
2017-09-12T18:22:24.672Z,24.33
2017-09-12T18:24:50.927Z,24.19
2017-09-12T18:27:17.144Z,24.20
2017-09-12T18:29:43.365Z,24.02
2017-09-12T18:32:09.598Z,24.02
2017-09-12T18:34:35.824Z,23.93
2017-09-12T18:37:02.051Z,23.91
2017-09-12T18:39:28.296Z,23.89
2017-09-12T18:41:54.515Z,23.87
2017-09-12T18:44:20.763Z,23.67
2017-09-12T18:46:46.995Z,23.69
2017-09-12T18:49:13.203Z,23.49
2017-09-12T18:51:39.447Z,23.35
2017-09-12T18:54:05.663Z,23.33
2017-09-12T18:56:31.899Z,23.34
2017-09-12T18:58:58.121Z,23.29
2017-09-12T19:01:24.385Z,23.24
2017-09-12T19:03:50.613Z,23.16
2017-09-12T19:06:16.831Z,23.11
2017-09-12T19:08:43.049Z,23.04
2017-09-12T19:11:09.272Z,22.97
2017-09-12T19:13:35.514Z,22.84
2017-09-12T19:16:01.762Z,22.88
2017-09-12T19:18:27.964Z,22.81
2017-09-12T19:20:54.179Z,22.74
2017-09-12T19:23:20.422Z,22.69
2017-09-12T19:25:46.654Z,22.73
2017-09-12T19:28:12.847Z,22.74
2017-09-12T19:30:39.110Z,22.61
2017-09-12T19:33:05.352Z,22.61
2017-09-12T19:35:31.591Z,22.48
2017-09-12T19:37:57.791Z,22.33
2017-09-12T19:40:24.025Z,22.22
2017-09-12T19:42:50.266Z,22.10
2017-09-12T19:45:16.500Z,22.17
2017-09-12T19:47:42.738Z,22.20
2017-09-12T19:50:08.923Z,22.13
2017-09-12T19:52:35.281Z,22.07
2017-09-12T19:55:01.511Z,22.01
2017-09-12T19:57:27.743Z,21.86
2017-09-12T19:59:53.987Z,21.80
2017-09-12T20:02:20.203Z,21.73
2017-09-12T20:04:46.419Z,21.69
2017-09-12T20:07:12.680Z,21.71
2017-09-12T20:09:38.894Z,21.75
2017-09-12T20:12:05.149Z,21.82
2017-09-12T20:14:31.346Z,21.77
2017-09-12T20:16:57.587Z,21.70
2017-09-12T20:19:23.823Z,21.50
2017-09-12T20:21:50.045Z,21.45
2017-09-12T20:24:16.279Z,21.39
2017-09-12T20:26:42.515Z,21.15
2017-09-12T20:29:08.727Z,21.16
2017-09-12T20:31:34.952Z,21.11
2017-09-12T20:34:01.188Z,21.16
2017-09-12T20:36:27.413Z,21.03
2017-09-12T20:38:53.634Z,20.97
2017-09-12T20:41:19.915Z,20.79
2017-09-12T20:43:46.102Z,20.73
2017-09-12T20:46:12.342Z,20.61
2017-09-12T20:48:38.593Z,20.52
2017-09-12T20:51:04.805Z,20.43
2017-09-12T20:53:31.033Z,20.31
2017-09-12T20:55:57.265Z,20.26
2017-09-12T20:58:23.483Z,20.14
2017-09-12T21:00:49.717Z,20.06
2017-09-12T21:03:15.936Z,19.97
2017-09-12T21:05:42.170Z,19.95
2017-09-12T21:08:09.061Z,19.98
2017-09-12T21:10:35.356Z,19.89
2017-09-12T21:13:01.579Z,19.84
2017-09-12T21:15:27.797Z,19.82
2017-09-12T21:17:54.046Z,19.89
2017-09-12T21:20:20.262Z,19.93
2017-09-12T21:22:46.510Z,19.99
2017-09-12T21:25:12.724Z,20.06
2017-09-12T21:27:38.952Z,20.12
2017-09-12T21:30:05.195Z,20.12
2017-09-12T21:32:31.417Z,20.16
2017-09-12T21:34:57.642Z,20.09
2017-09-12T21:37:23.901Z,20.08
2017-09-12T21:39:50.114Z,19.84
2017-09-12T21:42:16.337Z,19.85
2017-09-12T21:44:42.551Z,19.84
2017-09-12T21:47:08.785Z,19.91
2017-09-12T21:49:35.006Z,19.88
2017-09-12T21:52:01.262Z,19.88
2017-09-12T21:54:27.471Z,19.73
2017-09-12T21:56:53.721Z,19.59
2017-09-12T21:59:19.926Z,19.49
2017-09-12T22:01:46.179Z,19.43
2017-09-12T22:04:12.400Z,19.31
2017-09-12T22:06:38.640Z,19.21
2017-09-12T22:09:04.851Z,19.16
2017-09-12T22:11:31.094Z,19.05
2017-09-12T22:13:57.338Z,19.01
2017-09-12T22:16:23.569Z,19.09
2017-09-12T22:18:49.777Z,19.06
2017-09-12T22:21:16.012Z,19.10
2017-09-12T22:23:42.225Z,19.05
2017-09-12T22:26:08.472Z,18.93
2017-09-12T22:28:34.700Z,18.94
2017-09-12T22:31:00.933Z,18.89
2017-09-12T22:33:27.158Z,18.72
2017-09-12T22:35:53.378Z,18.77
2017-09-12T22:38:19.616Z,18.87
2017-09-12T22:40:45.835Z,18.84
2017-09-12T22:43:12.080Z,18.77
2017-09-12T22:45:38.296Z,18.69
2017-09-12T22:48:04.529Z,18.61
2017-09-12T22:50:30.759Z,18.69
2017-09-12T22:52:56.985Z,18.69
2017-09-12T22:55:23.212Z,18.69
2017-09-12T22:57:49.461Z,18.71
2017-09-12T23:00:15.683Z,18.70
2017-09-12T23:02:41.902Z,18.67
2017-09-12T23:05:08.147Z,18.62
2017-09-12T23:07:34.368Z,18.60
2017-09-12T23:10:00.618Z,18.62
2017-09-12T23:12:26.824Z,18.50
2017-09-12T23:14:53.042Z,18.54
2017-09-12T23:17:19.276Z,18.48
2017-09-12T23:19:45.520Z,18.25
2017-09-12T23:22:11.758Z,18.22
2017-09-12T23:24:37.998Z,18.09
2017-09-12T23:27:04.228Z,18.07
2017-09-12T23:29:30.448Z,18.04
2017-09-12T23:31:56.671Z,18.02
2017-09-12T23:34:22.899Z,17.90
2017-09-12T23:36:49.138Z,17.85
2017-09-12T23:39:15.355Z,17.94
2017-09-12T23:41:41.585Z,17.89
2017-09-12T23:44:07.820Z,17.97
2017-09-12T23:46:34.040Z,18.07
2017-09-12T23:49:00.285Z,18.14
2017-09-12T23:51:26.498Z,18.31
2017-09-12T23:53:52.733Z,18.39
2017-09-12T23:56:18.965Z,18.54
2017-09-12T23:58:45.200Z,18.64
